Time;durP1;ratioP1;P1;durP2;ratioP2;P2;SDS_P1;SDS_P2;PMS_P1;PMS_P2;Temp;Humidity;BMP_temperature;BMP_pressure;BME280_temperature;BME280_humidity;BME280_pressure;Samples;Min_cycle;Max_cycle;Signal;HPM_P1;HPM_P2
2024/01/26 00:01:46;;;;;;;7.10;6.50;;;12.00;99.90;;;;;;5116302;28;20577;-72
2024/01/26 00:04:12;;;;;;;8.23;6.93;;;12.00;99.90;;;;;;5114486;28;20218;-71
2024/01/26 00:06:37;;;;;;;7.73;7.13;;;12.10;99.90;;;;;;5116061;28;20201;-72
2024/01/26 00:09:13;;;;;;;7.73;6.93;;;12.10;99.90;;;;;;5115829;28;20175;-72
2024/01/26 00:11:39;;;;;;;7.70;7.00;;;12.10;99.90;;;;;;5115524;28;20179;-74
2024/01/26 00:14:06;;;;;;;10.50;7.80;;;12.10;99.90;;;;;;5115685;28;20264;-73
2024/01/26 00:16:32;;;;;;;8.40;7.70;;;12.20;99.90;;;;;;5115875;28;20182;-72
2024/01/26 00:18:58;;;;;;;8.20;7.57;;;12.10;99.90;;;;;;5115712;28;20167;-73
2024/01/26 00:21:24;;;;;;;9.50;8.70;;;12.00;99.90;;;;;;5115717;28;20234;-73
2024/01/26 00:23:50;;;;;;;9.93;8.93;;;11.90;99.90;;;;;;5113775;28;20305;-73
2024/01/26 00:26:15;;;;;;;9.83;9.03;;;11.80;99.90;;;;;;5115494;28;20246;-72
2024/01/26 00:28:41;;;;;;;11.43;9.83;;;11.80;99.90;;;;;;5114774;28;20194;-71
2024/01/26 00:31:07;;;;;;;12.43;10.00;;;11.80;99.90;;;;;;5113665;28;20227;-72
2024/01/26 00:33:33;;;;;;;11.03;9.93;;;11.80;99.90;;;;;;5115312;28;20181;-72
2024/01/26 00:35:59;;;;;;;11.57;10.40;;;11.80;99.90;;;;;;5115355;28;20171;-72
2024/01/26 00:38:24;;;;;;;11.83;10.63;;;11.80;99.90;;;;;;5115261;28;20699;-72
2024/01/26 00:40:50;;;;;;;11.07;10.07;;;11.80;99.90;;;;;;5115217;28;20171;-71
2024/01/26 00:43:16;;;;;;;11.43;10.33;;;11.80;99.90;;;;;;5115352;28;20248;-73
2024/01/26 00:45:43;;;;;;;11.80;10.60;;;11.80;99.90;;;;;;5113844;28;20171;-73
2024/01/26 00:48:08;;;;;;;11.13;9.87;;;11.90;99.90;;;;;;5115158;28;20174;-73
2024/01/26 00:50:34;;;;;;;9.40;8.60;;;12.00;99.90;;;;;;5115193;27;20168;-72
2024/01/26 00:53:00;;;;;;;9.53;8.50;;;12.00;99.90;;;;;;5114702;28;20282;-71
2024/01/26 00:55:29;;;;;;;10.00;9.10;;;12.10;99.90;;;;;;5114919;28;20684;-72
2024/01/26 00:57:56;;;;;;;10.27;9.37;;;12.00;99.90;;;;;;5115059;28;20618;-71
2024/01/26 01:00:23;;;;;;;8.67;7.97;;;12.10;99.90;;;;;;5115132;27;20174;-73
2024/01/26 01:02:53;;;;;;;8.60;7.80;;;12.00;99.90;;;;;;5114979;28;20171;-73
2024/01/26 01:05:19;;;;;;;8.93;8.03;;;12.00;99.90;;;;;;5114934;28;20175;-72
2024/01/26 01:07:45;;;;;;;8.93;7.47;;;11.90;99.90;;;;;;5113031;28;20174;-72
2024/01/26 01:10:11;;;;;;;7.70;7.10;;;11.90;99.90;;;;;;5114765;28;20167;-73
2024/01/26 01:12:43;;;;;;;9.07;8.23;;;11.90;99.90;;;;;;5114827;28;20163;-72
2024/01/26 01:15:12;;;;;;;10.13;7.27;;;11.90;99.90;;;;;;5113335;28;20259;-73
2024/01/26 01:17:39;;;;;;;9.80;7.37;;;11.90;99.90;;;;;;5114548;28;20213;-74
2024/01/26 01:20:06;;;;;;;8.00;7.20;;;11.80;99.90;;;;;;5113225;28;20199;-73
2024/01/26 01:22:32;;;;;;;7.73;6.83;;;11.70;99.90;;;;;;5114275;28;20194;-73
2024/01/26 01:24:58;;;;;;;8.20;7.40;;;11.70;99.90;;;;;;5113020;28;20689;-73
2024/01/26 01:27:24;;;;;;;7.50;6.77;;;11.70;99.90;;;;;;5113044;28;20167;-73
2024/01/26 01:29:49;;;;;;;7.90;7.10;;;11.60;99.90;;;;;;5114392;28;20747;-72
2024/01/26 01:32:15;;;;;;;8.87;7.10;;;11.70;99.90;;;;;;5114141;28;20226;-73
2024/01/26 01:34:40;;;;;;;7.20;6.60;;;11.80;99.90;;;;;;5114106;28;20228;-73
2024/01/26 01:37:06;;;;;;;7.77;7.10;;;11.80;99.90;;;;;;5112671;28;20195;-73
2024/01/26 01:39:31;;;;;;;8.07;6.70;;;11.80;99.90;;;;;;5114185;28;20164;-73
2024/01/26 01:41:57;;;;;;;7.37;6.67;;;12.00;99.90;;;;;;5113918;28;20627;-73
2024/01/26 01:44:22;;;;;;;7.83;6.50;;;12.00;99.90;;;;;;5114031;28;20203;-73
2024/01/26 01:46:48;;;;;;;8.33;6.30;;;12.00;99.90;;;;;;5114022;28;20182;-73
2024/01/26 01:49:13;;;;;;;7.27;6.57;;;12.00;99.90;;;;;;5112721;28;20626;-73
2024/01/26 01:51:45;;;;;;;6.97;6.10;;;12.10;99.90;;;;;;5113356;28;20440;-73
2024/01/26 01:54:11;;;;;;;8.57;7.27;;;12.10;99.90;;;;;;5112420;28;20194;-74
2024/01/26 01:56:42;;;;;;;7.90;6.40;;;12.10;99.90;;;;;;5113867;28;20179;-72
2024/01/26 01:59:08;;;;;;;7.30;6.60;;;12.10;99.90;;;;;;5113804;28;20175;-73
2024/01/26 02:01:33;;;;;;;7.30;6.60;;;12.10;99.90;;;;;;5113846;28;20159;-73
2024/01/26 02:04:02;;;;;;;7.27;6.63;;;12.10;99.90;;;;;;5113685;28;20210;-71
2024/01/26 02:06:28;;;;;;;7.73;7.00;;;12.10;99.90;;;;;;5113747;28;20167;-73
2024/01/26 02:08:53;;;;;;;8.13;7.03;;;12.10;99.90;;;;;;5114117;28;20167;-73
2024/01/26 02:11:19;;;;;;;9.77;7.03;;;12.10;99.90;;;;;;5113684;28;20627;-73
2024/01/26 02:13:44;;;;;;;8.77;6.40;;;12.10;99.90;;;;;;5113648;28;20570;-73
2024/01/26 02:16:10;;;;;;;6.77;6.13;;;12.10;99.90;;;;;;5113520;28;20236;-73
2024/01/26 02:18:36;;;;;;;7.50;6.07;;;12.10;99.90;;;;;;5113531;28;20163;-72
2024/01/26 02:21:02;;;;;;;9.43;6.93;;;12.20;99.90;;;;;;5112089;28;20266;-73
2024/01/26 02:23:27;;;;;;;7.70;6.90;;;12.20;99.90;;;;;;5113527;28;20198;-72
2024/01/26 02:25:53;;;;;;;9.20;6.70;;;12.20;99.90;;;;;;5113490;28;20590;-73
2024/01/26 02:28:19;;;;;;;7.00;6.40;;;12.30;99.90;;;;;;5113628;28;20175;-72
2024/01/26 02:30:45;;;;;;;9.67;6.47;;;12.20;99.90;;;;;;5113274;28;20226;-72
2024/01/26 02:33:10;;;;;;;7.00;6.30;;;12.20;99.90;;;;;;5113364;28;20171;-74
2024/01/26 02:35:36;;;;;;;9.03;7.10;;;12.20;99.90;;;;;;5113079;28;20220;-73
2024/01/26 02:38:01;;;;;;;9.13;7.33;;;12.10;99.90;;;;;;5113467;28;20677;-72
2024/01/26 02:40:29;;;;;;;8.93;7.30;;;12.20;99.90;;;;;;5112252;28;20219;-72
2024/01/26 02:42:55;;;;;;;7.67;7.00;;;12.00;99.90;;;;;;5113509;28;20163;-72
2024/01/26 02:45:20;;;;;;;7.90;7.10;;;12.00;99.90;;;;;;5113368;28;20171;-72
2024/01/26 02:47:46;;;;;;;8.60;7.40;;;11.90;99.90;;;;;;5113064;28;20171;-72
2024/01/26 02:50:11;;;;;;;7.57;6.80;;;11.80;99.90;;;;;;5113107;28;20171;-72
2024/01/26 02:52:37;;;;;;;7.93;6.60;;;11.80;99.90;;;;;;5114759;28;20218;-73
2024/01/26 02:55:03;;;;;;;9.10;7.23;;;11.70;99.90;;;;;;5117338;28;20224;-72
2024/01/26 02:57:28;;;;;;;8.47;7.63;;;11.80;99.90;;;;;;5117346;28;20175;-72
2024/01/26 02:59:54;;;;;;;9.57;7.77;;;11.80;99.90;;;;;;5117417;28;20176;-72
2024/01/26 03:02:19;;;;;;;8.33;7.53;;;11.90;99.90;;;;;;5117300;28;20202;-74
2024/01/26 03:04:45;;;;;;;8.10;7.30;;;11.90;99.90;;;;;;5116732;28;20207;-71
2024/01/26 03:07:10;;;;;;;10.23;7.70;;;11.90;99.90;;;;;;5098889;28;20214;-73
2024/01/26 03:09:36;;;;;;;10.87;7.73;;;11.80;99.90;;;;;;5117395;28;20171;-72
2024/01/26 03:12:02;;;;;;;7.70;7.00;;;11.80;99.90;;;;;;5116007;28;20167;-72
2024/01/26 03:14:28;;;;;;;11.47;8.23;;;11.80;99.90;;;;;;5116953;28;20623;-72
2024/01/26 03:16:54;;;;;;;9.63;8.63;;;11.80;99.90;;;;;;5116862;28;20167;-73
2024/01/26 03:19:20;;;;;;;8.67;7.90;;;11.80;99.90;;;;;;5116613;28;20223;-73
2024/01/26 03:21:45;;;;;;;9.60;7.73;;;11.90;99.90;;;;;;5116777;28;20195;-72
2024/01/26 03:24:12;;;;;;;8.70;7.83;;;11.90;99.90;;;;;;5116625;28;20206;-72
2024/01/26 03:26:38;;;;;;;9.23;8.30;;;11.90;99.90;;;;;;5116786;28;20262;-72
2024/01/26 03:29:05;;;;;;;9.33;8.43;;;11.90;99.90;;;;;;5116879;27;20252;-72
2024/01/26 03:31:31;;;;;;;12.17;8.63;;;11.70;99.90;;;;;;5116344;28;20576;-73
2024/01/26 03:33:56;;;;;;;10.93;8.50;;;11.70;99.90;;;;;;5116223;28;20178;-72
2024/01/26 03:36:22;;;;;;;9.53;8.63;;;11.70;99.90;;;;;;5116726;28;20182;-72
2024/01/26 03:38:47;;;;;;;10.37;9.37;;;11.60;99.90;;;;;;5115306;28;20228;-72
2024/01/26 03:41:13;;;;;;;11.37;10.27;;;11.70;99.90;;;;;;5115069;28;20178;-73
2024/01/26 03:43:38;;;;;;;11.87;10.67;;;11.70;99.90;;;;;;5116336;28;20215;-73
2024/01/26 03:46:06;;;;;;;13.60;11.70;;;11.70;99.90;;;;;;5116307;28;20167;-73
2024/01/26 03:48:32;;;;;;;14.13;11.17;;;11.60;99.90;;;;;;5116089;28;20210;-72
2024/01/26 03:50:58;;;;;;;12.87;11.57;;;11.60;99.90;;;;;;5116240;28;20175;-72
2024/01/26 03:53:24;;;;;;;14.53;12.63;;;11.70;99.90;;;;;;5114918;28;20249;-72
2024/01/26 03:55:49;;;;;;;13.37;11.73;;;11.70;99.90;;;;;;5116150;28;20183;-73
2024/01/26 03:58:15;;;;;;;17.43;12.57;;;11.70;99.90;;;;;;5116010;28;20533;-73
2024/01/26 04:00:40;;;;;;;15.73;12.47;;;11.70;99.90;;;;;;5115997;28;20606;-73
2024/01/26 04:03:06;;;;;;;13.43;11.47;;;11.70;99.90;;;;;;5115779;28;20619;-73
2024/01/26 04:05:32;;;;;;;15.47;11.57;;;11.70;99.90;;;;;;5115837;28;20171;-73
2024/01/26 04:07:58;;;;;;;16.57;10.93;;;11.70;99.90;;;;;;5115882;28;20623;-73
2024/01/26 04:10:23;;;;;;;13.63;11.07;;;11.70;99.90;;;;;;5115783;28;20515;-73
2024/01/26 04:12:49;;;;;;;12.23;10.43;;;11.80;99.90;;;;;;5116013;28;20182;-73
2024/01/26 04:15:15;;;;;;;12.77;11.33;;;11.80;99.90;;;;;;5115487;28;20203;-72
2024/01/26 04:17:40;;;;;;;13.67;10.60;;;11.80;99.90;;;;;;5114957;28;20171;-73
2024/01/26 04:20:06;;;;;;;15.57;12.03;;;11.80;99.90;;;;;;5115198;28;20248;-73
2024/01/26 04:22:32;;;;;;;12.97;11.23;;;11.80;99.90;;;;;;5114030;28;20630;-73
2024/01/26 04:24:57;;;;;;;13.57;11.97;;;11.80;99.90;;;;;;5115531;28;20207;-73
2024/01/26 04:27:23;;;;;;;15.03;12.43;;;11.70;99.90;;;;;;5115400;28;20179;-73
2024/01/26 04:29:48;;;;;;;17.03;13.67;;;11.60;99.90;;;;;;5115354;28;20174;-73
2024/01/26 04:32:14;;;;;;;18.30;14.13;;;11.70;99.90;;;;;;5114703;28;20219;-73
2024/01/26 04:34:40;;;;;;;15.53;13.63;;;11.60;99.90;;;;;;5115141;28;20163;-72
2024/01/26 04:37:07;;;;;;;17.13;13.83;;;11.70;99.90;;;;;;5115295;28;20182;-73
2024/01/26 04:39:33;;;;;;;17.17;14.10;;;11.70;99.90;;;;;;5115256;27;20175;-73
2024/01/26 04:41:59;;;;;;;15.63;13.57;;;11.70;99.90;;;;;;5115143;28;20179;-73
2024/01/26 04:44:25;;;;;;;18.77;14.83;;;11.70;99.90;;;;;;5114871;28;20207;-72
2024/01/26 04:46:53;;;;;;;18.03;14.80;;;11.70;99.90;;;;;;5114467;28;20221;-73
2024/01/26 04:49:18;;;;;;;17.93;14.90;;;11.70;99.90;;;;;;5113585;28;20223;-72
2024/01/26 04:51:44;;;;;;;21.97;15.37;;;11.80;99.90;;;;;;5114712;27;20242;-72
2024/01/26 04:54:09;;;;;;;16.87;15.00;;;11.80;99.90;;;;;;5113721;28;20723;-73
2024/01/26 04:56:35;;;;;;;18.10;14.03;;;11.90;99.90;;;;;;5114477;28;20171;-73
2024/01/26 04:59:01;;;;;;;19.73;14.40;;;11.90;99.90;;;;;;5114481;28;20251;-73
2024/01/26 05:01:26;;;;;;;18.47;13.30;;;11.80;99.90;;;;;;5112881;28;20209;-73
2024/01/26 05:03:52;;;;;;;15.63;13.10;;;11.80;99.90;;;;;;5113082;28;20309;-73
2024/01/26 05:06:18;;;;;;;16.27;12.33;;;11.70;99.90;;;;;;5114225;28;20645;-72
2024/01/26 05:08:43;;;;;;;14.57;13.03;;;11.60;99.90;;;;;;5114193;28;20167;-73
2024/01/26 05:11:09;;;;;;;16.40;12.87;;;11.70;99.90;;;;;;5114082;28;20182;-73
2024/01/26 05:13:35;;;;;;;14.97;12.27;;;11.60;99.90;;;;;;5113936;28;20167;-73
2024/01/26 05:16:00;;;;;;;15.33;12.33;;;11.60;99.90;;;;;;5113337;28;20250;-72
2024/01/26 05:18:28;;;;;;;15.40;13.37;;;11.60;99.90;;;;;;5114031;28;20171;-72
2024/01/26 05:20:53;;;;;;;14.20;11.93;;;11.60;99.90;;;;;;5114424;28;20159;-73
2024/01/26 05:23:19;;;;;;;16.63;12.93;;;11.50;99.90;;;;;;5113249;28;20210;-73
2024/01/26 05:25:45;;;;;;;17.17;12.03;;;11.50;99.90;;;;;;5112388;28;20619;-72
2024/01/26 05:28:10;;;;;;;16.57;12.70;;;11.50;99.90;;;;;;5113873;28;20211;-72
2024/01/26 05:30:36;;;;;;;18.33;12.90;;;11.50;99.90;;;;;;5113436;28;20317;-72
2024/01/26 05:33:02;;;;;;;16.03;13.07;;;11.50;99.90;;;;;;5114079;28;20198;-72
2024/01/26 05:35:27;;;;;;;14.17;12.07;;;11.50;99.90;;;;;;5113416;28;20637;-72
2024/01/26 05:37:53;;;;;;;14.63;12.50;;;11.40;99.90;;;;;;5114142;28;20175;-72
2024/01/26 05:40:18;;;;;;;19.90;12.83;;;11.50;99.90;;;;;;5113585;28;20171;-73
2024/01/26 05:42:44;;;;;;;16.33;12.70;;;11.40;99.90;;;;;;5113375;28;20177;-73
2024/01/26 05:45:10;;;;;;;15.60;13.27;;;11.50;99.90;;;;;;5112858;28;20206;-73
2024/01/26 05:47:35;;;;;;;16.40;13.20;;;11.40;99.90;;;;;;5113438;28;20458;-72
2024/01/26 05:50:01;;;;;;;19.63;12.90;;;11.40;99.90;;;;;;5113834;28;20601;-73
2024/01/26 05:52:27;;;;;;;17.70;13.20;;;11.40;99.90;;;;;;5113161;28;20234;-72
2024/01/26 05:54:52;;;;;;;18.77;13.47;;;11.40;99.90;;;;;;5113053;28;20175;-73
2024/01/26 05:57:18;;;;;;;17.57;13.57;;;11.40;99.90;;;;;;5113161;28;20185;-73
2024/01/26 05:59:43;;;;;;;16.67;13.37;;;11.40;99.90;;;;;;5113145;28;20232;-73
2024/01/26 06:02:09;;;;;;;17.50;13.83;;;11.40;99.90;;;;;;5113056;28;20175;-73
2024/01/26 06:04:35;;;;;;;17.67;13.20;;;11.40;99.90;;;;;;5112761;28;20236;-71
2024/01/26 06:07:00;;;;;;;15.67;13.37;;;11.40;99.90;;;;;;5113177;28;20183;-72
2024/01/26 06:09:26;;;;;;;19.57;13.07;;;11.40;99.90;;;;;;5113377;28;20177;-73
2024/01/26 06:11:51;;;;;;;18.87;12.90;;;11.50;99.90;;;;;;5111905;28;20522;-73
2024/01/26 06:14:17;;;;;;;15.70;12.60;;;11.40;99.90;;;;;;5112761;28;20179;-73
2024/01/26 06:16:43;;;;;;;17.07;12.53;;;11.40;99.90;;;;;;5113196;28;20187;-74
2024/01/26 06:19:08;;;;;;;14.93;12.00;;;11.50;99.90;;;;;;5112800;28;20174;-73
2024/01/26 06:21:34;;;;;;;14.97;11.73;;;11.50;99.90;;;;;;5112776;28;20554;-74
2024/01/26 06:23:59;;;;;;;14.53;12.20;;;11.50;99.90;;;;;;5112385;28;20203;-73
2024/01/26 06:26:25;;;;;;;14.77;12.13;;;11.50;99.90;;;;;;5112442;28;20170;-75
2024/01/26 06:28:51;;;;;;;15.90;11.50;;;11.40;99.90;;;;;;5116483;27;20217;-74
2024/01/26 06:31:17;;;;;;;14.70;11.03;;;11.50;99.90;;;;;;5116138;28;20292;-74
2024/01/26 06:33:43;;;;;;;13.97;10.10;;;11.50;99.90;;;;;;5116752;28;20173;-73
2024/01/26 06:36:11;;;;;;;14.97;10.30;;;11.50;99.90;;;;;;5116860;28;20182;-74
2024/01/26 06:38:40;;;;;;;13.90;10.60;;;11.50;99.90;;;;;;5115351;28;20270;-75
2024/01/26 06:41:06;;;;;;;13.87;9.37;;;11.60;99.90;;;;;;5116289;28;20178;-73
2024/01/26 06:43:32;;;;;;;13.70;9.70;;;11.50;99.90;;;;;;5116055;28;20302;-74
2024/01/26 06:45:57;;;;;;;11.53;9.23;;;11.60;99.90;;;;;;5116452;28;20661;-74
2024/01/26 06:48:25;;;;;;;10.10;8.87;;;11.70;99.90;;;;;;5116697;28;20649;-74
2024/01/26 06:50:50;;;;;;;9.40;8.40;;;11.70;99.90;;;;;;5115860;28;20175;-75
2024/01/26 06:53:16;;;;;;;10.43;8.60;;;11.70;99.90;;;;;;5116033;28;20578;-74
2024/01/26 06:55:41;;;;;;;10.13;8.53;;;11.70;99.90;;;;;;5115174;28;20175;-74
2024/01/26 06:58:07;;;;;;;10.77;8.73;;;11.70;99.90;;;;;;5114471;28;20171;-72
2024/01/26 07:00:32;;;;;;;8.53;7.63;;;11.80;99.90;;;;;;5116048;28;20168;-74
2024/01/26 07:02:58;;;;;;;10.53;8.03;;;11.80;99.90;;;;;;5115421;28;20171;-74
2024/01/26 07:05:24;;;;;;;9.37;8.30;;;11.70;99.90;;;;;;5115004;28;20183;-74
2024/01/26 07:07:49;;;;;;;10.40;8.00;;;11.70;99.90;;;;;;5116396;28;20185;-74
2024/01/26 07:10:15;;;;;;;12.80;7.80;;;11.80;99.90;;;;;;5115784;28;20163;-73
2024/01/26 07:12:41;;;;;;;10.10;8.50;;;11.80;99.90;;;;;;5115406;28;20550;-73
2024/01/26 07:15:09;;;;;;;8.63;7.73;;;11.80;99.90;;;;;;5115632;27;20164;-73
2024/01/26 07:17:35;;;;;;;8.47;7.60;;;11.80;99.90;;;;;;5115754;28;20163;-74
2024/01/26 07:20:01;;;;;;;8.37;6.60;;;11.80;99.90;;;;;;5115629;28;20277;-74
2024/01/26 07:22:26;;;;;;;8.97;7.70;;;11.90;99.90;;;;;;5115667;27;20167;-74
2024/01/26 07:24:53;;;;;;;8.03;7.20;;;11.90;99.90;;;;;;5114885;28;20234;-74
2024/01/26 07:27:19;;;;;;;9.60;7.70;;;11.90;99.90;;;;;;5116018;28;20248;-74
2024/01/26 07:29:45;;;;;;;8.10;6.87;;;11.90;99.90;;;;;;5115259;28;20623;-75
2024/01/26 07:32:11;;;;;;;8.63;7.60;;;12.00;99.90;;;;;;5114585;27;20207;-74
2024/01/26 07:34:37;;;;;;;7.73;6.67;;;12.00;99.90;;;;;;5115062;28;20178;-74
2024/01/26 07:37:03;;;;;;;8.03;6.67;;;12.00;99.90;;;;;;5115734;28;20178;-74
2024/01/26 07:39:28;;;;;;;7.60;6.03;;;12.00;99.90;;;;;;5114593;28;20607;-75
2024/01/26 07:41:54;;;;;;;10.63;6.37;;;12.10;99.90;;;;;;5115765;28;20200;-74
2024/01/26 07:44:19;;;;;;;7.93;6.20;;;12.10;99.90;;;;;;5115232;28;20283;-74
2024/01/26 07:46:45;;;;;;;8.80;6.43;;;12.10;99.90;;;;;;5115214;28;20495;-74
2024/01/26 07:49:10;;;;;;;10.27;7.17;;;12.20;99.90;;;;;;5113562;28;20197;-75
2024/01/26 07:51:36;;;;;;;8.13;5.87;;;12.20;99.90;;;;;;5115884;28;20211;-74
2024/01/26 07:54:02;;;;;;;10.40;5.80;;;12.30;99.90;;;;;;5114394;28;20191;-74
2024/01/26 07:56:28;;;;;;;7.00;6.30;;;12.30;99.90;;;;;;5114897;28;20175;-74
2024/01/26 07:58:53;;;;;;;10.60;7.23;;;12.30;99.90;;;;;;5114962;28;20167;-74
2024/01/26 08:01:19;;;;;;;7.40;6.20;;;12.20;99.90;;;;;;5114639;28;20170;-74
2024/01/26 08:03:45;;;;;;;6.47;5.83;;;12.30;99.90;;;;;;5114667;28;20223;-74
2024/01/26 08:06:10;;;;;;;6.83;5.50;;;12.30;99.90;;;;;;5115095;28;20222;-73
2024/01/26 08:08:36;;;;;;;9.40;5.77;;;12.30;99.90;;;;;;5114586;28;20183;-73
2024/01/26 08:11:02;;;;;;;10.00;5.97;;;12.30;99.90;;;;;;5114526;28;20551;-75
2024/01/26 08:13:27;;;;;;;6.20;5.70;;;12.30;99.90;;;;;;5114851;28;20254;-74
2024/01/26 08:15:54;;;;;;;7.53;5.70;;;12.30;99.90;;;;;;5114542;28;20238;-74
2024/01/26 08:18:20;;;;;;;7.60;5.90;;;12.30;99.90;;;;;;5115216;28;20167;-73
2024/01/26 08:20:45;;;;;;;7.63;5.90;;;12.20;99.90;;;;;;5113327;28;20216;-73
2024/01/26 08:23:11;;;;;;;6.90;5.17;;;12.30;99.90;;;;;;5113844;28;20167;-73
2024/01/26 08:25:37;;;;;;;6.63;5.10;;;12.30;99.90;;;;;;5114774;28;20178;-74
2024/01/26 08:28:02;;;;;;;9.07;5.50;;;12.30;99.90;;;;;;5114581;28;20176;-73
2024/01/26 08:30:28;;;;;;;7.40;5.17;;;12.30;99.90;;;;;;5114467;28;20276;-74
2024/01/26 08:32:54;;;;;;;8.63;5.60;;;12.30;99.90;;;;;;5117419;28;20173;-73
2024/01/26 08:35:19;;;;;;;6.67;5.77;;;12.30;99.90;;;;;;5114629;28;20193;-73
2024/01/26 08:37:45;;;;;;;10.43;4.87;;;12.40;99.90;;;;;;5113876;28;20719;-73
2024/01/26 08:40:11;;;;;;;8.50;5.87;;;12.40;99.90;;;;;;5114621;28;20178;-72
2024/01/26 08:42:36;;;;;;;7.30;5.40;;;12.30;99.90;;;;;;5114005;28;20179;-73
2024/01/26 08:45:03;;;;;;;8.23;5.37;;;12.30;99.90;;;;;;5114448;28;20207;-74
2024/01/26 08:47:29;;;;;;;7.27;5.30;;;12.30;99.90;;;;;;5114092;28;20202;-74
2024/01/26 08:49:55;;;;;;;8.27;5.83;;;12.30;99.90;;;;;;5113387;28;20186;-73
2024/01/26 08:52:21;;;;;;;6.13;5.40;;;12.40;99.90;;;;;;5114056;28;20183;-73
2024/01/26 08:54:46;;;;;;;7.30;5.30;;;12.40;99.90;;;;;;5113895;28;20167;-74
2024/01/26 08:57:12;;;;;;;11.57;5.17;;;12.40;99.90;;;;;;5113582;28;20198;-74
2024/01/26 08:59:38;;;;;;;9.17;5.87;;;12.40;99.90;;;;;;5112905;28;20171;-74
2024/01/26 09:02:04;;;;;;;7.87;5.37;;;12.40;99.90;;;;;;5114465;28;20195;-74
2024/01/26 09:04:30;;;;;;;12.50;6.17;;;12.50;99.90;;;;;;5113860;28;20682;-74
2024/01/26 09:06:55;;;;;;;8.90;5.53;;;12.60;99.90;;;;;;5114022;28;20181;-73
2024/01/26 09:09:22;;;;;;;11.27;5.70;;;12.60;99.90;;;;;;5113903;28;20167;-73
2024/01/26 09:11:47;;;;;;;9.60;5.30;;;12.60;99.90;;;;;;5113888;28;20571;-73
2024/01/26 09:14:14;;;;;;;8.83;4.63;;;12.60;99.90;;;;;;5113972;28;20171;-74
2024/01/26 09:16:39;;;;;;;9.93;5.40;;;12.50;99.90;;;;;;5114029;28;20194;-74
2024/01/26 09:19:05;;;;;;;8.10;4.33;;;12.50;99.90;;;;;;5113893;28;20552;-74
2024/01/26 09:21:30;;;;;;;4.37;3.80;;;12.40;99.90;;;;;;5113012;28;20240;-74
2024/01/26 09:23:56;;;;;;;5.70;3.17;;;12.30;99.90;;;;;;5113454;28;20276;-73
2024/01/26 09:26:22;;;;;;;4.07;2.07;;;12.10;99.90;;;;;;5112043;28;20170;-73
2024/01/26 09:28:48;;;;;;;4.93;1.90;;;11.80;99.90;;;;;;5113604;27;20512;-73
2024/01/26 09:31:13;;;;;;;8.93;2.03;;;11.70;99.90;;;;;;5113654;28;20374;-73
2024/01/26 09:33:39;;;;;;;5.43;2.60;;;11.60;99.90;;;;;;5113449;28;20179;-73
2024/01/26 09:36:05;;;;;;;5.80;1.93;;;11.50;99.90;;;;;;5113063;28;20242;-72
2024/01/26 09:38:30;;;;;;;7.30;2.00;;;11.40;99.90;;;;;;5114209;28;20175;-74
2024/01/26 09:40:56;;;;;;;7.27;1.97;;;11.40;99.90;;;;;;5113158;28;20254;-73
2024/01/26 09:43:23;;;;;;;12.17;7.30;;;11.40;99.90;;;;;;5113617;28;20210;-73
2024/01/26 09:45:52;;;;;;;7.77;2.70;;;11.50;99.90;;;;;;5113916;28;20172;-76
2024/01/26 09:48:19;;;;;;;5.10;1.60;;;11.60;99.90;;;;;;5112979;28;20696;-73
2024/01/26 09:50:50;;;;;;;6.30;2.20;;;11.70;99.90;;;;;;5112760;28;20618;-72
2024/01/26 09:53:17;;;;;;;3.07;1.70;;;11.80;99.90;;;;;;5113770;28;20190;-73
2024/01/26 09:55:47;;;;;;;7.97;2.30;;;12.00;99.90;;;;;;5113476;28;20178;-73
2024/01/26 09:58:14;;;;;;;11.80;7.73;;;12.10;99.90;;;;;;5113207;28;20269;-75
2024/01/26 10:00:41;;;;;;;6.80;2.37;;;12.00;99.90;;;;;;5113602;28;20163;-74
2024/01/26 10:03:07;;;;;;;11.90;3.97;;;12.10;99.90;;;;;;5112957;28;20533;-73
2024/01/26 10:05:33;;;;;;;6.63;2.13;;;12.10;99.90;;;;;;5113140;28;20181;-74
2024/01/26 10:07:58;;;;;;;8.10;2.80;;;12.10;99.90;;;;;;5112941;28;20179;-71
2024/01/26 10:10:25;;;;;;;4.90;2.20;;;12.10;99.90;;;;;;5112762;28;20572;-73
2024/01/26 10:12:51;;;;;;;10.40;2.40;;;12.20;99.90;;;;;;5112785;28;20176;-72
2024/01/26 10:15:16;;;;;;;6.70;2.07;;;12.20;99.90;;;;;;5113113;28;20180;-72
2024/01/26 10:17:43;;;;;;;6.03;2.23;;;12.30;99.90;;;;;;5113307;28;20183;-72
2024/01/26 10:20:14;;;;;;;6.70;2.20;;;12.30;99.90;;;;;;5112331;28;20203;-72
2024/01/26 10:22:41;;;;;;;7.30;1.90;;;12.20;99.90;;;;;;5112907;28;20683;-72
2024/01/26 10:25:07;;;;;;;6.70;2.90;;;12.30;99.90;;;;;;5113169;28;20248;-73
2024/01/26 10:27:34;;;;;;;6.30;1.93;;;12.40;99.90;;;;;;5113487;28;20179;-73
2024/01/26 10:30:00;;;;;;;7.23;2.00;;;12.50;99.90;;;;;;5113052;28;20167;-73
2024/01/26 10:32:28;;;;;;;6.37;2.50;;;12.60;99.90;;;;;;5112666;28;20222;-74
2024/01/26 10:34:59;;;;;;;5.23;1.73;;;13.20;99.90;;;;;;5112645;28;20199;-74
2024/01/26 10:37:33;;;;;;;4.00;1.50;;;13.70;99.90;;;;;;5112844;28;20171;-75
2024/01/26 10:40:00;;;;;;;4.40;1.70;;;14.50;99.90;;;;;;5113258;28;20163;-74
2024/01/26 10:42:29;;;;;;;3.40;1.50;;;15.20;99.90;;;;;;5112620;28;20163;-74
2024/01/26 10:44:56;;;;;;;5.00;1.90;;;15.40;99.90;;;;;;5113088;28;20233;-73
2024/01/26 10:47:22;;;;;;;2.53;1.60;;;15.80;99.90;;;;;;5111790;28;20246;-74
2024/01/26 10:49:49;;;;;;;5.57;1.73;;;15.90;99.90;;;;;;5112619;28;20258;-75
2024/01/26 10:52:19;;;;;;;3.55;1.60;;;16.20;99.90;;;;;;5112265;28;20183;-75
2024/01/26 10:54:46;;;;;;;2.63;1.30;;;16.60;99.50;;;;;;5113300;28;20246;-75
2024/01/26 10:57:12;;;;;;;3.92;1.30;;;16.70;98.10;;;;;;5112623;28;20523;-75
2024/01/26 10:59:41;;;;;;;2.35;1.15;;;16.40;97.30;;;;;;5112977;28;20277;-74
2024/01/26 11:02:11;;;;;;;4.25;1.40;;;15.70;95.30;;;;;;5110890;28;20171;-74
2024/01/26 11:04:40;;;;;;;2.75;1.10;;;14.70;97.00;;;;;;5111532;28;20272;-73
2024/01/26 11:07:07;;;;;;;3.70;1.50;;;14.20;98.40;;;;;;5112495;28;20627;-73
2024/01/26 11:09:36;;;;;;;2.97;1.50;;;13.70;99.10;;;;;;5112642;28;20167;-72
2024/01/26 11:12:02;;;;;;;3.00;1.37;;;13.10;99.90;;;;;;5112099;28;20261;-73
2024/01/26 11:14:32;;;;;;;5.13;1.30;;;12.60;99.90;;;;;;5115124;28;20175;-72
2024/01/26 11:17:09;;;;;;;4.17;1.50;;;12.20;99.90;;;;;;5116088;28;20179;-74
2024/01/26 11:19:35;;;;;;;7.73;1.73;;;11.80;99.90;;;;;;5116190;28;20167;-74
2024/01/26 11:22:04;;;;;;;3.70;1.40;;;11.80;99.90;;;;;;5116296;28;20177;-74
2024/01/26 11:24:32;;;;;;;4.33;1.30;;;11.80;99.90;;;;;;5115804;28;20237;-75
2024/01/26 11:27:02;;;;;;;3.13;1.00;;;12.30;99.90;;;;;;5116081;28;20171;-74
2024/01/26 11:29:35;;;;;;;3.23;1.37;;;12.90;99.90;;;;;;5115860;28;20634;-73
2024/01/26 11:32:14;;;;;;;4.20;1.57;;;13.60;99.90;;;;;;5115667;28;20215;-76
2024/01/26 11:34:40;;;;;;;6.07;1.80;;;14.00;97.60;;;;;;5116092;27;20198;-74
2024/01/26 11:37:13;;;;;;;3.85;1.30;;;14.10;97.20;;;;;;5114207;28;20969;-74
2024/01/26 11:39:39;;;;;;;1.73;0.95;;;14.40;96.00;;;;;;5115265;28;20175;-73
2024/01/26 11:42:11;;;;;;;2.40;1.20;;;14.20;93.50;;;;;;5115812;28;20186;-72
2024/01/26 11:44:42;;;;;;;2.90;1.20;;;14.00;94.70;;;;;;5116006;28;20319;-72
2024/01/26 11:47:11;;;;;;;5.40;1.10;;;14.00;94.10;;;;;;5115281;28;20242;-74
2024/01/26 11:49:38;;;;;;;2.83;1.45;;;13.70;94.90;;;;;;5114791;28;20171;-73
2024/01/26 11:52:04;;;;;;;2.97;1.20;;;14.00;95.80;;;;;;5115482;27;20159;-73
2024/01/26 11:54:33;;;;;;;2.85;1.45;;;14.50;95.30;;;;;;5115799;28;20167;-74
2024/01/26 11:56:59;;;;;;;4.72;1.40;;;14.90;94.30;;;;;;5115948;28;20254;-74
2024/01/26 11:59:28;;;;;;;3.70;1.30;;;15.10;93.20;;;;;;5115862;28;20217;-75
2024/01/26 12:01:55;;;;;;;3.22;1.58;;;15.50;92.70;;;;;;5114635;28;20194;-74
2024/01/26 12:04:21;;;;;;;3.25;1.17;;;15.80;92.10;;;;;;5115333;28;20285;-74
2024/01/26 12:06:46;;;;;;;5.10;1.30;;;15.90;90.90;;;;;;5115472;28;20168;-73
2024/01/26 12:09:13;;;;;;;2.22;1.10;;;15.20;89.10;;;;;;5115301;28;20168;-73
2024/01/26 12:11:38;;;;;;;5.03;1.90;;;14.90;90.50;;;;;;5115096;28;20190;-72
2024/01/26 12:14:04;;;;;;;5.72;1.25;;;15.10;91.30;;;;;;5114953;28;20260;-73
2024/01/26 12:16:31;;;;;;;3.55;1.80;;;14.90;90.80;;;;;;5114361;28;20167;-74
2024/01/26 12:18:56;;;;;;;5.53;1.90;;;14.80;92.00;;;;;;5115687;28;20194;-74
2024/01/26 12:21:22;;;;;;;3.30;1.70;;;14.80;90.90;;;;;;5113785;28;20171;-74
2024/01/26 12:23:50;;;;;;;3.97;1.90;;;14.60;91.00;;;;;;5114790;28;20661;-74
2024/01/26 12:26:16;;;;;;;6.88;2.03;;;14.50;91.70;;;;;;5112971;28;20634;-72
2024/01/26 12:28:42;;;;;;;5.03;1.63;;;14.10;91.00;;;;;;5114704;28;20645;-74
2024/01/26 12:31:08;;;;;;;9.48;1.80;;;13.70;91.80;;;;;;5114193;28;20682;-74
2024/01/26 12:33:37;;;;;;;8.48;1.73;;;13.90;92.20;;;;;;5114185;28;20595;-73
2024/01/26 12:36:08;;;;;;;2.90;1.30;;;14.20;91.60;;;;;;5114712;28;20225;-73